Acadiana Regional Airport
KARA : now visible

Airfield :











YOU CAN JOIN US ON...

 
LOGIN :

Register | Disclaimer

   EN    FR    IT 

 









Legend :    VFR   Marginal VFR   IFR   Intensive IFR   Very Intensive IFR
Visi :
Ceiling :
>= 8 km
>= 3000ft
5 to 8 km
1000 to 3000 ft
1500m to 5 km
500 to 1000 ft
800 to 1500m
200 to 500 ft
< 800m
< 200 ft
Symbols :   Thunderstorms  Fog  Heavy snow  Heavy precipitations  Wind > 20 kt






- Airport Elevation : 24 ft


KARA - Acadiana Regional

CURRENT METAR :
  • 070215Z 15005KT 2 1/2SM BR BKN021 19/18 A3010 RMK AO2 T01890178

EXPIRED METARs :
  • 070153Z 15004KT 6SM BR FEW023 20/19 A3010 RMK AO2 SLP192 T02000189
  • 070145Z 00000KT 6SM BR SCT023 20/19 A3010 RMK AO2 T02000189
  • 070053Z 17005KT 9SM BKN021 21/19 A3009 RMK AO2 SLP188 T02110194
  • 070039Z 18006KT 10SM BKN021 22/19 A3008 RMK AO2 T02170194
  • 062353Z 18007KT 10SM CLR 22/20 A3007 RMK AO2 SLP182 T02220200 10283 20222 51012

TAF KARA
Valid from the 07 at 00:00 until the 08 at 00:00 UTC


062320Z 0700/0724 20007KT P6SM SCT040
FM070900 17004KT 4SM BR SCT010 BKN025
TEMPO 0709/0713 1/2SM FG BKN005
FM071500 17010KT P6SM BKN035
KZHU FIR / North America



MET'MAP, your aeronautical weather chart ! - Copyright ORBIFLY December 2007 - Disclaimer

ORBIFLY MET'MAP TEAM :

Programming & Development : Alexandra Zaïnal
Original concept : Baudouin d'Aumeries
Technical & hardware support : Manuel Goepfert
Assistance : Marc-Olivier Méhu




SOURCES & CREDITS :

   NOAA       Earth
Advisory